Time;durP1;ratioP1;P1;durP2;ratioP2;P2;SDS_P1;SDS_P2;PMS_P1;PMS_P2;Temp;Humidity;BMP_temperature;BMP_pressure;BME280_temperature;BME280_humidity;BME280_pressure;Samples;Min_cycle;Max_cycle;Signal;HPM_P1;HPM_P2
2022/09/16 00:00:54;;;;;;;16.67;9.30;;;;;;;11.33;97.23;101004.94;5051385;28;20064;-61
2022/09/16 00:03:19;;;;;;;17.48;9.70;;;;;;;11.31;97.43;100993.34;5051715;28;20052;-61
2022/09/16 00:05:48;;;;;;;17.83;9.50;;;;;;;11.32;97.83;100997.75;5051572;28;20064;-61
2022/09/16 00:08:15;;;;;;;18.08;9.15;;;;;;;11.32;97.54;101006.06;5051505;28;20437;-61
2022/09/16 00:10:42;;;;;;;18.20;9.80;;;;;;;11.34;97.75;101001.03;5051716;28;20029;-61
2022/09/16 00:13:08;;;;;;;15.25;9.18;;;;;;;11.36;97.78;100990.47;5033223;28;20108;-62
2022/09/16 00:15:33;;;;;;;19.20;9.90;;;;;;;11.36;98.17;101001.56;5050806;28;20177;-61
2022/09/16 00:17:58;;;;;;;19.98;9.93;;;;;;;11.35;97.75;100995.19;5051476;28;20172;-61
2022/09/16 00:20:24;;;;;;;15.73;9.25;;;;;;;11.37;97.73;100987.38;5051723;28;20029;-61
2022/09/16 00:22:49;;;;;;;17.10;9.60;;;;;;;11.37;97.62;100981.84;5033497;28;20033;-62
2022/09/16 00:25:14;;;;;;;18.08;9.45;;;;;;;11.41;97.49;100992.31;5051548;28;20050;-60
2022/09/16 00:27:40;;;;;;;18.20;9.60;;;;;;;11.38;97.24;100983.50;5051226;28;20119;-61
2022/09/16 00:30:06;;;;;;;15.77;9.10;;;;;;;11.41;97.65;100990.34;5051323;28;20060;-60
2022/09/16 00:32:31;;;;;;;16.77;8.95;;;;;;;11.44;97.36;100986.16;5051315;28;20499;-60
2022/09/16 00:34:56;;;;;;;15.75;9.20;;;;;;;11.43;97.34;101001.16;5051258;28;20028;-61
2022/09/16 00:37:22;;;;;;;19.83;9.38;;;;;;;11.43;97.64;100996.41;5051254;28;20029;-60
2022/09/16 00:39:48;;;;;;;18.35;9.90;;;;;;;11.41;97.68;100989.56;5051148;28;20108;-61
2022/09/16 00:42:13;;;;;;;18.45;9.52;;;;;;;11.41;97.62;100992.31;5054247;28;20131;-60
2022/09/16 00:44:53;;;;;;;17.30;9.32;;;;;;;11.38;97.86;100991.81;5054515;28;20138;-60
2022/09/16 00:47:25;;;;;;;18.92;10.15;;;;;;;11.39;97.71;100992.63;5054639;28;20468;-60
2022/09/16 00:49:54;;;;;;;17.60;10.00;;;;;;;11.30;97.59;100975.91;5054824;28;20120;-60
2022/09/16 00:52:19;;;;;;;18.52;9.90;;;;;;;11.32;97.44;100987.50;5054522;28;20035;-60
2022/09/16 00:54:45;;;;;;;17.58;9.73;;;;;;;11.29;97.64;100977.03;5054532;28;20029;-60
2022/09/16 00:57:13;;;;;;;17.25;9.70;;;;;;;11.26;98.03;100985.94;5054453;28;20029;-60
2022/09/16 00:59:44;;;;;;;16.52;9.85;;;;;;;11.23;98.04;100984.63;5054457;28;20029;-60
2022/09/16 01:02:14;;;;;;;16.65;10.10;;;;;;;11.23;98.29;100978.28;5054552;28;20036;-60
2022/09/16 01:05:00;;;;;;;18.75;11.00;;;;;;;11.05;98.22;100957.84;5054775;28;20120;-60
2022/09/16 01:07:36;;;;;;;18.80;11.02;;;;;;;11.08;98.33;100971.09;5054562;28;20109;-60
2022/09/16 01:10:02;;;;;;;18.70;10.70;;;;;;;11.10;98.23;100981.84;5054603;28;20083;-60
2022/09/16 01:12:29;;;;;;;18.25;10.25;;;;;;;11.06;98.44;100978.88;5054415;28;20036;-60
2022/09/16 01:14:57;;;;;;;18.85;10.80;;;;;;;10.98;98.57;100974.03;5054590;28;20029;-60
2022/09/16 01:17:49;;;;;;;18.83;10.88;;;;;;;10.99;98.76;100976.50;5054254;28;20025;-60
2022/09/16 01:20:39;;;;;;;17.85;10.25;;;;;;;10.97;98.78;100978.75;5054098;28;20029;-61
2022/09/16 01:23:16;;;;;;;19.00;10.30;;;;;;;10.93;99.46;100978.53;5054541;28;20033;-60
2022/09/16 01:26:11;;;;;;;15.98;10.13;;;;;;;10.89;99.35;100976.69;5054289;28;20066;-60
2022/09/16 01:28:58;;;;;;;19.60;10.38;;;;;;;10.85;99.12;100970.94;5054752;28;20028;-60
2022/09/16 01:31:45;;;;;;;18.25;9.70;;;;;;;10.74;99.91;100966.72;5054178;28;20113;-60
2022/09/16 01:34:22;;;;;;;18.13;10.05;;;;;;;10.72;99.92;100969.78;5053970;28;20032;-59
2022/09/16 01:37:08;;;;;;;19.55;10.15;;;;;;;10.63;100.00;100968.03;5054183;28;20102;-60
2022/09/16 01:40:10;;;;;;;17.00;9.65;;;;;;;10.67;100.00;100972.66;5054120;28;20460;-60
2022/09/16 01:42:35;;;;;;;19.42;11.32;;;;;;;10.66;100.00;100972.94;5054155;28;20108;-61
2022/09/16 01:45:14;;;;;;;19.37;10.67;;;;;;;10.66;100.00;100971.03;5036280;28;20155;-61
2022/09/16 01:47:58;;;;;;;17.20;11.00;;;;;;;10.65;100.00;100968.53;5054351;28;20263;-60
2022/09/16 01:50:32;;;;;;;19.05;10.82;;;;;;;10.59;100.00;100965.88;5054596;28;20036;-60
2022/09/16 01:53:19;;;;;;;;;;;;;;;10.63;98.86;100965.28;5053791;28;20200;-60
2022/09/16 01:55:51;;;;;;;17.65;10.38;;;;;;;10.52;99.64;100964.63;5054134;28;20007;-61
2022/09/16 01:58:27;;;;;;;18.58;10.75;;;;;;;10.42;100.00;100963.66;5054155;28;20024;-61
2022/09/16 02:01:00;;;;;;;21.38;11.48;;;;;;;10.37;100.00;100968.44;5054054;28;20105;-60
2022/09/16 02:03:33;;;;;;;19.95;10.80;;;;;;;10.40;100.00;100976.16;5053726;28;20400;-60
2022/09/16 02:06:04;;;;;;;19.00;10.65;;;;;;;10.35;100.00;100967.91;5053538;28;20136;-60
2022/09/16 02:08:39;;;;;;;19.90;11.05;;;;;;;10.22;100.00;100958.44;5053300;28;20069;-60
2022/09/16 02:11:08;;;;;;;18.17;10.73;;;;;;;10.24;100.00;100972.78;5052219;28;20054;-61
2022/09/16 02:13:43;;;;;;;18.38;11.02;;;;;;;10.39;100.00;100977.28;5053525;28;20029;-60
2022/09/16 02:16:22;;;;;;;19.00;11.70;;;;;;;10.36;100.00;100975.91;5053423;28;20031;-61
2022/09/16 02:18:53;;;;;;;19.20;10.90;;;;;;;10.42;100.00;100980.25;5053459;28;20057;-61
2022/09/16 02:21:24;;;;;;;18.75;11.60;;;;;;;10.43;100.00;100984.66;5053591;28;20581;-61
2022/09/16 02:23:54;;;;;;;21.23;11.50;;;;;;;10.37;100.00;100974.81;5053668;28;20075;-61
2022/09/16 02:26:25;;;;;;;20.40;11.48;;;;;;;10.36;100.00;100975.91;5053487;28;20036;-60
2022/09/16 02:28:53;;;;;;;20.60;11.10;;;;;;;10.19;100.00;100950.75;5053352;28;20025;-59
2022/09/16 02:31:24;;;;;;;19.63;11.80;;;;;;;10.34;100.00;100980.09;5052827;28;20071;-60
2022/09/16 02:33:59;;;;;;;19.92;12.02;;;;;;;10.33;100.00;100975.69;5053268;28;20516;-60
2022/09/16 02:36:26;;;;;;;19.60;11.18;;;;;;;10.23;100.00;100962.84;5053017;28;20029;-62
2022/09/16 02:39:13;;;;;;;20.92;11.77;;;;;;;10.30;100.00;100977.09;5052838;28;20087;-62
2022/09/16 02:41:40;;;;;;;20.20;11.73;;;;;;;10.32;100.00;100971.28;5053164;28;20036;-61
2022/09/16 02:44:07;;;;;;;19.60;11.23;;;;;;;10.32;100.00;100969.34;5035453;28;20120;-62
2022/09/16 02:46:49;;;;;;;20.42;11.82;;;;;;;10.32;100.00;100968.53;5052789;28;20049;-59
2022/09/16 02:49:43;;;;;;;18.77;11.60;;;;;;;10.33;100.00;100967.41;5034623;28;20037;-60
2022/09/16 02:52:13;;;;;;;19.67;11.27;;;;;;;10.34;100.00;100960.75;5052964;28;20033;-60
2022/09/16 02:54:51;;;;;;;18.65;10.68;;;;;;;10.27;100.00;100953.66;5052882;28;20164;-60
2022/09/16 02:57:16;;;;;;;17.25;10.35;;;;;;;10.35;100.00;100965.97;5052763;28;20498;-60
2022/09/16 02:59:43;;;;;;;19.42;10.70;;;;;;;10.40;100.00;100970.63;5052749;28;20104;-60
2022/09/16 03:02:08;;;;;;;17.42;10.38;;;;;;;10.40;100.00;100965.91;5052672;28;20071;-59
2022/09/16 03:04:34;;;;;;;19.50;10.43;;;;;;;10.42;99.59;100962.84;5052677;28;20118;-59
2022/09/16 03:07:03;;;;;;;19.38;11.75;;;;;;;10.36;99.59;100951.03;5052796;28;20104;-58
2022/09/16 03:09:28;;;;;;;18.60;10.93;;;;;;;10.46;99.82;100958.34;5052831;28;20082;-59
2022/09/16 03:11:54;;;;;;;20.02;11.20;;;;;;;10.49;99.34;100960.50;5052228;28;20033;-59
2022/09/16 03:14:51;;;;;;;20.07;11.07;;;;;;;10.42;99.23;100952.59;5052155;28;20105;-59
2022/09/16 03:17:32;;;;;;;19.80;10.85;;;;;;;10.54;99.19;100959.59;5052176;28;20687;-60
2022/09/16 03:20:10;;;;;;;20.35;10.68;;;;;;;10.58;98.65;100960.66;5052689;28;20052;-59
2022/09/16 03:23:05;;;;;;;19.15;10.40;;;;;;;10.64;98.56;100955.81;5052404;28;20021;-59
2022/09/16 03:25:49;;;;;;;19.55;10.70;;;;;;;10.68;98.34;100954.91;5052574;28;20056;-59
2022/09/16 03:28:20;;;;;;;15.88;9.27;;;;;;;10.77;97.42;100952.28;5052269;28;20029;-60
2022/09/16 03:31:05;;;;;;;16.30;9.55;;;;;;;10.85;95.90;100956.31;5051951;28;20487;-60
2022/09/16 03:34:04;;;;;;;14.10;8.65;;;;;;;10.87;95.80;100957.63;5052706;28;20039;-60
2022/09/16 03:36:33;;;;;;;14.95;9.82;;;;;;;10.85;96.62;100956.31;5046470;28;20064;-60
2022/09/16 03:39:01;;;;;;;16.90;9.48;;;;;;;10.84;97.37;100949.94;5051808;28;20038;-60
2022/09/16 03:41:29;;;;;;;17.10;10.30;;;;;;;10.83;97.60;100948.28;5051630;28;20037;-60
2022/09/16 03:43:57;;;;;;;18.58;10.13;;;;;;;10.84;97.80;100952.69;5051898;28;20036;-60
2022/09/16 03:46:23;;;;;;;15.88;9.70;;;;;;;10.79;98.18;100952.81;5034168;28;20103;-61
2022/09/16 03:48:49;;;;;;;17.95;10.38;;;;;;;10.76;98.79;100961.69;5052388;28;20163;-61
2022/09/16 03:51:14;;;;;;;18.27;10.75;;;;;;;10.74;99.30;100961.19;5052479;28;20112;-61
2022/09/16 03:53:40;;;;;;;16.20;10.38;;;;;;;10.72;99.40;100952.38;5052080;28;20028;-61
2022/09/16 03:56:05;;;;;;;15.18;10.30;;;;;;;10.69;99.67;100962.09;5034575;28;20035;-61
2022/09/16 03:58:30;;;;;;;15.10;9.93;;;;;;;10.67;99.65;100955.22;5052171;28;20475;-60
2022/09/16 04:00:56;;;;;;;15.52;10.10;;;;;;;10.64;100.00;100948.38;5052056;28;20025;-61
2022/09/16 04:03:21;;;;;;;17.13;9.80;;;;;;;10.60;100.00;100950.91;5052040;28;20100;-61
2022/09/16 04:05:55;;;;;;;15.52;9.70;;;;;;;10.60;100.00;100955.63;5051889;28;20142;-61
2022/09/16 04:08:20;;;;;;;;;;;;;;;10.62;99.67;100953.38;5052397;28;20059;-61
2022/09/16 04:10:53;;;;;;;16.55;9.90;;;;;;;10.54;100.00;100945.78;5033657;28;20276;-61
2022/09/16 04:13:19;;;;;;;14.83;10.13;;;;;;;10.60;100.00;100956.47;5051773;28;20031;-61
2022/09/16 04:15:44;;;;;;;16.23;10.02;;;;;;;10.61;100.00;100946.19;5034214;28;20033;-61
2022/09/16 04:18:09;;;;;;;17.23;10.32;;;;;;;10.62;100.00;100956.16;5054403;28;20131;-61
2022/09/16 04:20:34;;;;;;;17.98;9.93;;;;;;;10.58;100.00;100955.94;5055566;28;20033;-61
2022/09/16 04:23:00;;;;;;;18.73;10.27;;;;;;;10.55;100.00;100958.50;5037878;28;20032;-61
2022/09/16 04:25:25;;;;;;;17.20;10.00;;;;;;;10.52;100.00;100959.91;5055354;28;20036;-61
2022/09/16 04:27:51;;;;;;;16.20;10.57;;;;;;;10.50;100.00;100962.16;5055352;28;20029;-61
2022/09/16 04:30:16;;;;;;;19.08;9.98;;;;;;;10.48;100.00;100960.84;5054958;28;20032;-61
2022/09/16 04:32:41;;;;;;;17.77;10.50;;;;;;;10.44;100.00;100960.59;5055458;28;20396;-61
2022/09/16 04:35:07;;;;;;;15.27;10.32;;;;;;;10.46;100.00;100974.94;5055668;28;20063;-61
2022/09/16 04:37:33;;;;;;;16.00;10.25;;;;;;;10.47;100.00;100973.81;5055441;28;20527;-61
2022/09/16 04:39:58;;;;;;;16.17;10.40;;;;;;;10.49;100.00;100971.56;5055196;28;20479;-61
2022/09/16 04:42:23;;;;;;;19.00;10.40;;;;;;;10.50;100.00;100966.84;5055139;28;20349;-61
2022/09/16 04:44:49;;;;;;;18.48;10.43;;;;;;;10.48;100.00;100964.41;5055429;28;20033;-61
2022/09/16 04:47:14;;;;;;;16.20;10.20;;;;;;;10.47;100.00;100951.69;5055365;28;20090;-61
2022/09/16 04:49:39;;;;;;;15.90;9.60;;;;;;;10.55;100.00;100951.00;5055399;28;20060;-61
2022/09/16 04:52:05;;;;;;;15.20;10.23;;;;;;;10.59;100.00;100946.50;5055336;28;20028;-61
2022/09/16 04:54:30;;;;;;;16.35;9.57;;;;;;;10.55;100.00;100951.00;5037220;28;20025;-60
2022/09/16 04:56:56;;;;;;;16.67;9.30;;;;;;;10.54;100.00;100948.53;5053779;28;20024;-60
2022/09/16 04:59:21;;;;;;;18.17;9.98;;;;;;;10.54;100.00;100954.06;5054977;28;20029;-60
2022/09/16 05:01:47;;;;;;;14.82;9.73;;;;;;;10.55;100.00;100947.41;5054855;28;20032;-61
2022/09/16 05:04:12;;;;;;;14.05;9.30;;;;;;;10.54;100.00;100945.78;5054574;28;20044;-60
2022/09/16 05:06:39;;;;;;;17.33;9.57;;;;;;;10.47;100.00;100939.81;5054499;28;20033;-60
2022/09/16 05:09:05;;;;;;;15.95;9.95;;;;;;;10.55;100.00;100959.28;5054375;28;20457;-61
2022/09/16 05:11:33;;;;;;;16.60;9.68;;;;;;;10.53;100.00;100953.25;5054605;28;20017;-60
2022/09/16 05:13:59;;;;;;;16.30;9.80;;;;;;;10.57;100.00;100956.25;5054635;28;20100;-60
2022/09/16 05:16:26;;;;;;;16.65;10.30;;;;;;;10.52;100.00;100959.91;5055195;28;20025;-60
2022/09/16 05:18:54;;;;;;;17.90;10.20;;;;;;;10.35;100.00;100943.84;5036491;28;20052;-60
2022/09/16 05:21:22;;;;;;;18.00;10.10;;;;;;;10.49;100.00;100966.03;5054704;28;20044;-60
2022/09/16 05:23:48;;;;;;;14.98;9.35;;;;;;;10.49;100.00;100957.75;5055368;28;20035;-60
2022/09/16 05:26:17;;;;;;;15.70;9.70;;;;;;;10.50;100.00;100955.78;5055044;28;20444;-60
2022/09/16 05:28:43;;;;;;;15.32;9.50;;;;;;;10.56;100.00;100960.13;5053901;28;20167;-60
2022/09/16 05:31:11;;;;;;;14.63;9.70;;;;;;;10.59;100.00;100974.19;5036801;28;20037;-60
2022/09/16 05:33:39;;;;;;;15.88;9.70;;;;;;;10.60;100.00;100958.38;5054221;28;20168;-60
2022/09/16 05:36:12;;;;;;;14.73;9.93;;;;;;;10.60;100.00;100939.84;5054362;28;20037;-60
2022/09/16 05:38:38;;;;;;;15.15;9.90;;;;;;;10.59;100.00;100957.56;5053048;28;20086;-60
2022/09/16 05:41:04;;;;;;;13.38;9.13;;;;;;;10.55;99.94;100941.88;5054371;28;20037;-60
2022/09/16 05:43:31;;;;;;;12.15;9.13;;;;;;;10.63;100.00;100956.97;5053938;28;20120;-60
2022/09/16 05:45:56;;;;;;;13.48;9.30;;;;;;;10.61;100.00;100960.88;5053556;28;20024;-60
2022/09/16 05:48:22;;;;;;;15.63;9.10;;;;;;;10.63;100.00;100970.81;5054085;28;20564;-60
2022/09/16 05:50:58;;;;;;;12.93;8.75;;;;;;;10.56;100.00;100958.19;5054055;28;20079;-61
2022/09/16 05:53:25;;;;;;;13.60;8.80;;;;;;;10.61;99.64;100976.63;5054081;28;20550;-60
2022/09/16 05:56:03;;;;;;;14.00;9.13;;;;;;;10.56;100.00;100969.25;5053371;28;20025;-60
2022/09/16 05:58:29;;;;;;;15.65;8.73;;;;;;;10.53;99.72;100974.56;5053581;28;20471;-60
2022/09/16 06:01:02;;;;;;;14.55;8.80;;;;;;;10.50;99.39;100970.47;5054077;28;20376;-59
2022/09/16 06:03:28;;;;;;;14.80;9.20;;;;;;;10.53;98.72;100989.19;5052222;28;20472;-59
2022/09/16 06:06:02;;;;;;;15.10;8.90;;;;;;;10.57;99.21;100981.16;5053587;28;20064;-60
2022/09/16 06:08:29;;;;;;;16.45;8.77;;;;;;;10.63;99.17;100982.69;5054112;28;20052;-60
2022/09/16 06:10:54;;;;;;;15.32;8.90;;;;;;;10.66;98.50;100982.09;5053882;28;20411;-60
2022/09/16 06:13:20;;;;;;;14.27;8.80;;;;;;;10.74;98.32;100988.84;5053272;28;20025;-61
2022/09/16 06:15:55;;;;;;;17.17;9.35;;;;;;;10.83;98.67;101002.81;5054117;28;20040;-61
2022/09/16 06:18:22;;;;;;;15.80;8.50;;;;;;;10.81;98.45;100983.75;5053818;28;20041;-60
2022/09/16 06:20:48;;;;;;;12.70;8.50;;;;;;;10.90;99.19;100990.25;5053043;28;20035;-60
2022/09/16 06:23:14;;;;;;;12.90;8.38;;;;;;;10.91;99.26;100991.84;5053467;28;20033;-60
2022/09/16 06:25:39;;;;;;;22.58;9.48;;;;;;;10.98;100.00;100990.66;5053737;28;20071;-62
2022/09/16 06:28:05;;;;;;;12.45;8.63;;;;;;;10.98;100.00;100985.13;5053986;28;20024;-61
2022/09/16 06:30:31;;;;;;;17.92;9.10;;;;;;;11.00;100.00;100988.41;5036087;28;20043;-61
2022/09/16 06:32:57;;;;;;;15.70;9.20;;;;;;;11.02;100.00;100999.97;5031973;28;20144;-61
2022/09/16 06:35:22;;;;;;;13.77;8.98;;;;;;;11.03;100.00;100996.91;5031836;28;20033;-60
2022/09/16 06:37:48;;;;;;;15.45;9.05;;;;;;;11.06;100.00;101001.03;5031686;28;20048;-61
2022/09/16 06:40:13;;;;;;;14.40;9.60;;;;;;;11.08;100.00;100996.81;5031499;28;20033;-62
2022/09/16 06:42:38;;;;;;;18.60;9.20;;;;;;;11.14;100.00;100997.53;5031889;28;20037;-61
2022/09/16 06:45:06;;;;;;;16.17;9.50;;;;;;;11.19;100.00;101011.28;5047578;28;20036;-61
2022/09/16 06:47:32;;;;;;;17.17;9.50;;;;;;;11.21;100.00;101006.25;5064477;28;20479;-60
2022/09/16 06:50:00;;;;;;;17.20;9.57;;;;;;;11.19;100.00;101000.19;5071720;28;20032;-61
2022/09/16 06:52:26;;;;;;;16.05;9.20;;;;;;;11.19;100.00;101004.94;5071908;28;20608;-61
2022/09/16 06:54:52;;;;;;;17.35;9.95;;;;;;;11.11;100.00;101000.91;5053590;28;20132;-61
2022/09/16 06:57:21;;;;;;;15.50;9.10;;;;;;;11.07;100.00;101000.69;5071107;28;20108;-60
2022/09/16 06:59:47;;;;;;;18.88;9.88;;;;;;;11.06;100.00;100996.28;5071706;28;20052;-60
2022/09/16 07:02:12;;;;;;;16.52;9.70;;;;;;;11.09;100.00;101005.97;5071406;28;20029;-60
2022/09/16 07:04:38;;;;;;;17.38;9.60;;;;;;;11.10;100.00;101006.75;5071370;28;20063;-60
2022/09/16 07:07:03;;;;;;;17.02;9.65;;;;;;;11.15;100.00;101004.72;5071417;28;20401;-62
2022/09/16 07:09:29;;;;;;;20.88;10.00;;;;;;;11.22;100.00;101010.66;5070397;28;20033;-60
2022/09/16 07:11:55;;;;;;;17.75;9.43;;;;;;;11.24;100.00;101002.88;5052478;28;20039;-60
2022/09/16 07:14:21;;;;;;;18.15;9.70;;;;;;;11.32;100.00;101004.13;5071156;28;20056;-60
2022/09/16 07:16:46;;;;;;;16.63;9.50;;;;;;;11.38;100.00;101010.38;5070845;28;20032;-60
2022/09/16 07:19:12;;;;;;;13.60;8.77;;;;;;;11.43;100.00;100992.84;5052177;28;20044;-60
2022/09/16 07:21:37;;;;;;;17.42;9.70;;;;;;;11.49;100.00;101011.78;5065748;28;20063;-60
2022/09/16 07:24:03;;;;;;;15.15;9.15;;;;;;;11.55;99.56;101007.81;5050938;28;20041;-59
2022/09/16 07:26:31;;;;;;;17.25;9.25;;;;;;;11.64;99.36;101010.66;5051136;28;20017;-60
2022/09/16 07:28:59;;;;;;;18.25;9.40;;;;;;;11.70;98.83;101005.84;5051081;28;20029;-60
2022/09/16 07:31:27;;;;;;;16.25;9.00;;;;;;;11.77;97.50;100997.09;5033672;28;20035;-59
2022/09/16 07:33:55;;;;;;;16.80;9.02;;;;;;;11.77;96.73;100995.13;5051023;28;20033;-60
2022/09/16 07:36:28;;;;;;;15.13;8.73;;;;;;;11.96;97.13;100997.78;5047426;28;20326;-60
2022/09/16 07:38:58;;;;;;;14.98;8.70;;;;;;;12.10;95.79;101000.56;5050761;28;20033;-59
2022/09/16 07:41:26;;;;;;;17.02;8.80;;;;;;;12.30;95.13;101007.56;5051253;28;20029;-59
2022/09/16 07:43:53;;;;;;;12.30;7.90;;;;;;;12.53;93.28;100999.25;5050931;28;20479;-59
2022/09/16 07:46:19;;;;;;;14.70;8.50;;;;;;;12.75;92.80;100998.41;5050952;28;20045;-61
2022/09/16 07:48:46;;;;;;;14.23;8.43;;;;;;;12.79;90.94;100999.44;5050542;28;20108;-60
2022/09/16 07:51:17;;;;;;;15.60;8.27;;;;;;;12.86;91.45;101001.72;5051971;28;20024;-60
2022/09/16 07:53:44;;;;;;;13.65;8.27;;;;;;;12.77;92.07;101010.03;5054331;28;20043;-60
2022/09/16 07:56:15;;;;;;;14.35;8.55;;;;;;;12.64;91.87;101006.19;5054779;28;20020;-59
2022/09/16 07:58:43;;;;;;;15.82;8.50;;;;;;;12.54;92.52;101014.78;5054864;28;20029;-59
2022/09/16 08:01:08;;;;;;;17.30;9.27;;;;;;;12.48;92.98;101019.63;5054678;28;20025;-60
2022/09/16 08:03:35;;;;;;;13.18;8.70;;;;;;;12.50;93.20;101019.31;5054967;28;20087;-60
2022/09/16 08:06:04;;;;;;;15.63;8.88;;;;;;;12.48;93.27;101019.63;5036767;28;20036;-60
2022/09/16 08:08:30;;;;;;;15.52;8.90;;;;;;;12.46;93.30;101013.56;5054220;28;20083;-60
2022/09/16 08:10:56;;;;;;;17.98;9.20;;;;;;;12.50;93.53;101024.03;5053837;28;20025;-60
2022/09/16 08:13:22;;;;;;;14.50;9.00;;;;;;;12.48;92.57;101018.78;5054438;28;20108;-60
2022/09/16 08:15:48;;;;;;;16.33;8.60;;;;;;;12.43;92.26;101021.69;5054970;28;20120;-60
2022/09/16 08:18:13;;;;;;;11.73;8.63;;;;;;;12.45;91.73;101030.53;5036839;28;20159;-60
2022/09/16 08:20:39;;;;;;;18.10;9.30;;;;;;;12.44;91.22;101031.66;5054136;28;20029;-60
2022/09/16 08:23:04;;;;;;;15.55;8.85;;;;;;;12.48;92.56;101030.72;5054674;28;20095;-60
2022/09/16 08:25:29;;;;;;;16.02;8.93;;;;;;;12.53;91.37;101037.28;5054666;28;20025;-59
2022/09/16 08:27:55;;;;;;;16.73;8.45;;;;;;;12.53;90.81;101028.94;5054977;28;20037;-59
2022/09/16 08:30:20;;;;;;;15.88;8.45;;;;;;;12.62;92.26;101035.38;5054188;28;20095;-59
2022/09/16 08:32:45;;;;;;;15.07;9.00;;;;;;;12.69;90.95;101034.94;5054098;28;20088;-60
2022/09/16 08:35:13;;;;;;;14.98;8.82;;;;;;;12.82;91.82;101038.78;5035988;28;20045;-60
2022/09/16 08:37:38;;;;;;;15.02;8.93;;;;;;;12.87;90.12;101041.44;5034525;28;20029;-58
2022/09/16 08:40:05;;;;;;;17.63;8.98;;;;;;;12.98;89.13;101033.66;5034082;28;20044;-61
2022/09/16 08:42:55;;;;;;;18.80;9.23;;;;;;;13.03;88.43;101041.88;5033830;28;20030;-59
2022/09/16 08:45:27;;;;;;;14.55;9.07;;;;;;;13.13;88.23;101036.00;5034021;28;20492;-60
2022/09/16 08:48:14;;;;;;;14.95;8.77;;;;;;;13.25;89.07;101038.22;5033851;28;20025;-60
2022/09/16 08:50:43;;;;;;;17.52;8.68;;;;;;;13.27;87.88;101025.63;5032499;28;20034;-59
2022/09/16 08:53:23;;;;;;;17.83;8.30;;;;;;;13.41;85.97;101033.91;5032478;28;20108;-60
2022/09/16 08:55:50;;;;;;;14.65;8.45;;;;;;;13.50;86.05;101033.94;5033166;28;20037;-60
2022/09/16 08:58:24;;;;;;;11.55;7.90;;;;;;;13.52;86.08;101033.63;5034177;28;20109;-60
2022/09/16 09:00:59;;;;;;;15.38;8.23;;;;;;;13.47;83.52;101039.31;5034219;28;20025;-60
2022/09/16 09:03:24;;;;;;;18.80;7.70;;;;;;;13.54;82.80;101040.47;5033524;28;20038;-59
2022/09/16 09:05:55;;;;;;;14.93;8.03;;;;;;;13.79;82.33;101043.66;5033818;28;20033;-59
2022/09/16 09:08:44;;;;;;;13.00;8.00;;;;;;;14.07;82.94;101037.00;5033918;28;20810;-60
2022/09/16 09:11:37;;;;;;;13.65;7.78;;;;;;;14.24;81.81;101044.56;5033051;28;20495;-61
2022/09/16 09:14:19;;;;;;;13.55;8.10;;;;;;;14.34;81.43;101030.34;5033763;28;20022;-60
2022/09/16 09:16:50;;;;;;;15.25;7.50;;;;;;;14.46;78.62;101032.44;5033510;28;20033;-60
2022/09/16 09:19:34;;;;;;;12.45;7.28;;;;;;;14.58;77.47;101027.03;5033582;28;20049;-60
2022/09/16 09:22:17;;;;;;;;;;;;;;;14.88;77.49;101037.50;5033626;28;20035;-60
2022/09/16 09:25:17;;;;;;;12.73;8.00;;;;;;;15.08;74.96;101042.38;5033484;28;19913;-60
2022/09/16 09:28:16;;;;;;;14.15;8.52;;;;;;;15.21;75.22;101039.72;5033303;28;20037;-60
2022/09/16 09:30:53;;;;;;;15.52;7.72;;;;;;;15.23;74.47;101031.81;5033368;28;20094;-59
2022/09/16 09:33:24;;;;;;;13.68;7.25;;;;;;;15.29;68.92;101027.72;5033115;28;20104;-59
2022/09/16 09:36:01;;;;;;;17.40;9.02;;;;;;;15.13;70.92;101046.94;5033728;28;20034;-59
2022/09/16 09:38:57;;;;;;;12.52;8.18;;;;;;;14.70;66.71;101123.84;5033322;28;20469;-60
2022/09/16 09:41:32;;;;;;;11.77;10.02;;;;;;;12.88;74.36;101099.41;5033108;28;20399;-59
2022/09/16 09:44:45;;;;;;;13.43;10.02;;;;;;;11.59;81.50;101104.16;5014611;28;20457;-59
2022/09/16 09:47:15;;;;;;;13.43;9.80;;;;;;;10.84;87.54;101076.44;5032479;28;20080;-59
2022/09/16 09:49:49;;;;;;;13.30;9.77;;;;;;;10.39;92.80;101074.88;5032239;28;20025;-59
2022/09/16 09:52:14;;;;;;;;;;;;;;;10.57;89.02;101086.25;5033318;28;20049;-60
2022/09/16 09:54:44;;;;;;;13.93;9.13;;;;;;;10.28;91.93;101076.16;5032501;28;19917;-60
2022/09/16 09:57:36;;;;;;;13.75;9.52;;;;;;;10.12;95.81;101089.34;5015177;28;20354;-61
2022/09/16 10:00:14;;;;;;;13.95;9.50;;;;;;;10.18;98.38;101081.81;5032831;28;20068;-60
2022/09/16 10:02:42;;;;;;;12.00;9.00;;;;;;;10.27;97.54;101078.06;5013783;28;20030;-60
2022/09/16 10:05:34;;;;;;;14.73;9.10;;;;;;;10.50;96.47;101074.72;5014490;28;20055;-59
2022/09/16 10:08:24;;;;;;;12.75;8.90;;;;;;;10.61;99.82;101062.38;5029229;28;20042;-60
2022/09/16 10:11:01;;;;;;;17.02;9.00;;;;;;;10.74;97.63;101069.09;5031114;28;20117;-59
2022/09/16 10:13:29;;;;;;;11.88;8.85;;;;;;;10.84;97.37;101065.34;5031759;28;20033;-60
2022/09/16 10:16:19;;;;;;;16.65;9.45;;;;;;;10.88;96.86;101067.22;5032897;28;20029;-59
2022/09/16 10:18:55;;;;;;;15.60;8.90;;;;;;;10.86;96.45;101055.63;5046057;28;20045;-60
2022/09/16 10:21:20;;;;;;;16.00;9.40;;;;;;;10.87;97.95;101064.72;5052234;28;20041;-62
2022/09/16 10:23:56;;;;;;;14.43;9.20;;;;;;;10.94;95.86;101067.94;5052492;28;20044;-60
2022/09/16 10:26:24;;;;;;;13.80;9.23;;;;;;;10.85;96.51;101059.50;5052525;28;20039;-60
2022/09/16 10:29:01;;;;;;;17.30;9.60;;;;;;;10.89;98.47;101060.56;5052287;28;20461;-60
2022/09/16 10:31:36;;;;;;;16.95;9.32;;;;;;;10.95;97.64;101064.06;5051883;28;20479;-60
2022/09/16 10:34:04;;;;;;;15.73;9.07;;;;;;;11.04;96.59;101061.41;5052452;28;20090;-60
2022/09/16 10:36:33;;;;;;;16.88;8.68;;;;;;;11.06;96.50;101056.38;5052491;28;20025;-60
2022/09/16 10:39:04;;;;;;;15.10;9.52;;;;;;;11.22;97.98;101060.50;5052089;28;20021;-61
2022/09/16 10:41:39;;;;;;;17.45;9.02;;;;;;;11.46;98.34;101062.31;5051629;28;20140;-60
2022/09/16 10:44:17;;;;;;;15.50;8.60;;;;;;;11.73;94.54;101054.28;5051992;28;20063;-60
2022/09/16 10:46:55;;;;;;;14.68;8.88;;;;;;;11.86;97.84;101045.13;5051958;28;20021;-59
2022/09/16 10:49:27;;;;;;;17.05;8.30;;;;;;;12.04;97.93;101043.41;5051564;28;20466;-60
2022/09/16 10:51:53;;;;;;;17.17;8.52;;;;;;;12.27;95.63;101054.53;5051635;28;20083;-62
2022/09/16 10:54:27;;;;;;;15.80;8.40;;;;;;;12.42;94.58;101047.81;5052076;28;20416;-61
2022/09/16 10:56:53;;;;;;;15.60;8.30;;;;;;;12.59;93.20;101052.69;5050872;28;20123;-61
2022/09/16 10:59:18;;;;;;;12.57;8.10;;;;;;;12.69;91.73;101048.81;5052105;28;20391;-61
2022/09/16 11:01:49;;;;;;;14.40;8.00;;;;;;;12.86;91.11;101048.94;5052041;28;20037;-60
2022/09/16 11:04:30;;;;;;;14.30;8.18;;;;;;;12.96;91.38;101036.75;5033449;28;20045;-61
2022/09/16 11:07:14;;;;;;;15.25;7.90;;;;;;;13.24;90.03;101047.69;5050852;28;20032;-60
2022/09/16 11:09:52;;;;;;;;;;;;;;;13.47;87.46;101045.69;5050647;28;20033;-60
2022/09/16 11:12:38;;;;;;;10.55;7.78;;;;;;;13.60;84.59;101043.13;5051512;28;19913;-60
2022/09/16 11:15:38;;;;;;;13.93;8.40;;;;;;;13.67;83.35;101051.81;5050975;28;20060;-60
2022/09/16 11:18:18;;;;;;;15.68;8.05;;;;;;;13.60;83.51;101048.69;5050691;28;20056;-60
2022/09/16 11:21:11;;;;;;;13.32;8.27;;;;;;;13.55;83.47;101050.47;5050647;28;20120;-61
2022/09/16 11:23:46;;;;;;;13.25;8.82;;;;;;;13.48;81.39;101050.13;5050749;28;20055;-61
2022/09/16 11:26:58;;;;;;;14.65;8.57;;;;;;;13.62;83.09;101057.50;5051210;28;20033;-60
2022/09/16 11:29:58;;;;;;;14.82;8.48;;;;;;;13.76;81.59;101049.03;4989701;28;20104;-60
2022/09/16 11:33:12;;;;;;;14.18;8.68;;;;;;;13.77;80.47;101053.47;5033049;28;20103;-60
2022/09/16 11:35:46;;;;;;;15.68;8.77;;;;;;;13.76;82.81;101049.88;5025987;28;20041;-60